sensor_id;sensor_type;location;lat;lon;timestamp;pressure;altitude;pressure_sealevel;temperature;humidity
12949;BME280;6539;49.476;8.484;2022-11-20T00:01:29;100142.56;;;7.13;77.98
12949;BME280;6539;49.476;8.484;2022-11-20T00:04:01;100139.44;;;7.14;78.23
12949;BME280;6539;49.476;8.484;2022-11-20T00:06:29;100137.47;;;7.18;78.34
12949;BME280;6539;49.476;8.484;2022-11-20T00:08:57;100135.16;;;7.24;77.99
12949;BME280;6539;49.476;8.484;2022-11-20T00:11:26;100129.72;;;7.20;77.86
12949;BME280;6539;49.476;8.484;2022-11-20T00:13:58;100129.72;;;7.24;78.01
12949;BME280;6539;49.476;8.484;2022-11-20T00:16:27;100124.63;;;7.29;77.92
12949;BME280;6539;49.476;8.484;2022-11-20T00:18:55;100123.47;;;7.30;77.94
12949;BME280;6539;49.476;8.484;2022-11-20T00:21:27;100112.56;;;7.30;77.49
12949;BME280;6539;49.476;8.484;2022-11-20T00:23:57;100118.00;;;7.23;76.89
12949;BME280;6539;49.476;8.484;2022-11-20T00:26:26;100128.91;;;7.16;76.93
12949;BME280;6539;49.476;8.484;2022-11-20T00:29:00;100126.56;;;7.04;78.25
12949;BME280;6539;49.476;8.484;2022-11-20T00:31:30;100131.25;;;7.04;78.01
12949;BME280;6539;49.476;8.484;2022-11-20T00:33:57;100129.69;;;7.03;78.36
12949;BME280;6539;49.476;8.484;2022-11-20T00:36:26;100125.41;;;7.05;79.56
12949;BME280;6539;49.476;8.484;2022-11-20T00:38:57;100127.34;;;7.12;79.26
12949;BME280;6539;49.476;8.484;2022-11-20T00:41:25;100128.16;;;7.16;78.89
12949;BME280;6539;49.476;8.484;2022-11-20T00:43:53;100134.00;;;7.21;78.07
12949;BME280;6539;49.476;8.484;2022-11-20T00:46:24;100129.69;;;7.10;77.01
12949;BME280;6539;49.476;8.484;2022-11-20T00:48:50;100131.22;;;6.97;77.23
12949;BME280;6539;49.476;8.484;2022-11-20T00:51:22;100129.25;;;6.83;78.12
12949;BME280;6539;49.476;8.484;2022-11-20T00:53:49;100135.88;;;6.82;78.98
12949;BME280;6539;49.476;8.484;2022-11-20T00:56:18;100132.38;;;6.88;79.27
12949;BME280;6539;49.476;8.484;2022-11-20T00:58:48;100127.72;;;6.85;79.48
12949;BME280;6539;49.476;8.484;2022-11-20T01:01:24;100142.09;;;6.86;79.74
12949;BME280;6539;49.476;8.484;2022-11-20T01:03:52;100132.00;;;6.93;79.86
12949;BME280;6539;49.476;8.484;2022-11-20T01:06:24;100124.22;;;6.96;79.72
12949;BME280;6539;49.476;8.484;2022-11-20T01:08:56;100134.38;;;6.99;78.67
12949;BME280;6539;49.476;8.484;2022-11-20T01:11:29;100134.31;;;6.88;79.19
12949;BME280;6539;49.476;8.484;2022-11-20T01:13:59;100137.44;;;6.83;79.47
12949;BME280;6539;49.476;8.484;2022-11-20T01:16:40;100134.72;;;6.83;79.71
12949;BME280;6539;49.476;8.484;2022-11-20T01:19:14;100119.91;;;6.84;79.77
12949;BME280;6539;49.476;8.484;2022-11-20T01:21:47;100125.75;;;6.97;79.88
12949;BME280;6539;49.476;8.484;2022-11-20T01:24:17;100124.59;;;7.01;79.88
12949;BME280;6539;49.476;8.484;2022-11-20T01:26:48;100125.00;;;7.10;79.21
12949;BME280;6539;49.476;8.484;2022-11-20T01:29:21;100131.25;;;7.11;78.25
12949;BME280;6539;49.476;8.484;2022-11-20T01:31:49;100127.34;;;7.12;78.20
12949;BME280;6539;49.476;8.484;2022-11-20T01:34:19;100128.13;;;7.09;78.29
12949;BME280;6539;49.476;8.484;2022-11-20T01:36:49;100123.06;;;7.14;78.33
12949;BME280;6539;49.476;8.484;2022-11-20T01:39:19;100135.16;;;7.17;77.52
12949;BME280;6539;49.476;8.484;2022-11-20T01:41:47;100127.75;;;7.14;78.01
12949;BME280;6539;49.476;8.484;2022-11-20T01:48:10;100118.00;;;7.16;77.81
12949;BME280;6539;49.476;8.484;2022-11-20T01:50:39;100108.25;;;7.08;77.38
12949;BME280;6539;49.476;8.484;2022-11-20T01:53:10;100107.88;;;7.13;77.68
12949;BME280;6539;49.476;8.484;2022-11-20T01:55:49;100110.97;;;7.12;77.89
12949;BME280;6539;49.476;8.484;2022-11-20T01:58:20;100107.06;;;7.16;78.19
12949;BME280;6539;49.476;8.484;2022-11-20T02:00:48;100108.66;;;7.17;77.31
12949;BME280;6539;49.476;8.484;2022-11-20T02:03:19;100113.31;;;7.13;77.32
12949;BME280;6539;49.476;8.484;2022-11-20T02:06:07;100105.13;;;7.03;77.47
12949;BME280;6539;49.476;8.484;2022-11-20T02:08:38;100112.94;;;7.11;77.87
12949;BME280;6539;49.476;8.484;2022-11-20T02:11:09;100106.69;;;7.21;78.00
12949;BME280;6539;49.476;8.484;2022-11-20T02:13:37;100098.13;;;7.19;76.69
12949;BME280;6539;49.476;8.484;2022-11-20T02:16:15;100097.72;;;7.17;76.73
12949;BME280;6539;49.476;8.484;2022-11-20T02:18:45;100104.72;;;7.18;76.69
12949;BME280;6539;49.476;8.484;2022-11-20T02:24:19;100112.53;;;7.09;77.81
12949;BME280;6539;49.476;8.484;2022-11-20T02:26:59;100119.56;;;7.10;78.23
12949;BME280;6539;49.476;8.484;2022-11-20T02:29:35;100115.28;;;7.13;78.40
12949;BME280;6539;49.476;8.484;2022-11-20T02:32:05;100109.44;;;7.18;78.34
12949;BME280;6539;49.476;8.484;2022-11-20T02:34:33;100109.44;;;7.07;77.57
12949;BME280;6539;49.476;8.484;2022-11-20T02:36:59;100091.09;;;7.01;78.11
12949;BME280;6539;49.476;8.484;2022-11-20T02:39:28;100090.69;;;7.02;78.53
12949;BME280;6539;49.476;8.484;2022-11-20T02:41:56;100093.44;;;7.02;79.23
12949;BME280;6539;49.476;8.484;2022-11-20T02:44:22;100096.94;;;7.10;79.45
12949;BME280;6539;49.476;8.484;2022-11-20T02:46:48;100088.34;;;7.08;79.04
12949;BME280;6539;49.476;8.484;2022-11-20T02:49:14;100094.59;;;7.08;78.83
12949;BME280;6539;49.476;8.484;2022-11-20T02:51:39;100091.50;;;7.13;78.85
12949;BME280;6539;49.476;8.484;2022-11-20T02:54:08;100088.75;;;7.13;78.67
12949;BME280;6539;49.476;8.484;2022-11-20T02:56:41;100091.47;;;7.17;78.82
12949;BME280;6539;49.476;8.484;2022-11-20T02:59:07;100088.75;;;7.06;78.98
12949;BME280;6539;49.476;8.484;2022-11-20T03:01:33;100083.28;;;7.10;79.19
12949;BME280;6539;49.476;8.484;2022-11-20T03:03:59;100091.09;;;7.18;79.84
12949;BME280;6539;49.476;8.484;2022-11-20T03:06:27;100090.72;;;7.23;78.57
12949;BME280;6539;49.476;8.484;2022-11-20T03:08:55;100073.56;;;7.16;78.64
12949;BME280;6539;49.476;8.484;2022-11-20T03:11:25;100082.13;;;7.14;79.53
12949;BME280;6539;49.476;8.484;2022-11-20T03:13:51;100081.72;;;7.23;79.80
12949;BME280;6539;49.476;8.484;2022-11-20T03:16:22;100074.34;;;7.09;79.94
12949;BME280;6539;49.476;8.484;2022-11-20T03:18:52;100075.88;;;7.03;80.39
12949;BME280;6539;49.476;8.484;2022-11-20T03:21:19;100072.78;;;7.05;80.67
12949;BME280;6539;49.476;8.484;2022-11-20T03:23:50;100070.81;;;6.98;81.03
12949;BME280;6539;49.476;8.484;2022-11-20T03:26:24;100077.03;;;7.06;81.03
12949;BME280;6539;49.476;8.484;2022-11-20T03:28:54;100079.41;;;7.11;81.28
12949;BME280;6539;49.476;8.484;2022-11-20T03:31:27;100071.22;;;7.07;81.34
12949;BME280;6539;49.476;8.484;2022-11-20T03:33:53;100075.88;;;7.00;80.95
12949;BME280;6539;49.476;8.484;2022-11-20T03:36:22;100079.03;;;7.05;81.20
12949;BME280;6539;49.476;8.484;2022-11-20T03:38:50;100077.44;;;7.11;81.57
12949;BME280;6539;49.476;8.484;2022-11-20T03:41:25;100082.50;;;7.13;81.40
12949;BME280;6539;49.476;8.484;2022-11-20T03:44:00;100080.16;;;7.04;81.45
12949;BME280;6539;49.476;8.484;2022-11-20T03:46:27;100086.41;;;7.12;81.72
12949;BME280;6539;49.476;8.484;2022-11-20T03:48:58;100083.28;;;7.06;82.17
12949;BME280;6539;49.476;8.484;2022-11-20T03:51:27;100076.66;;;7.14;81.70
12949;BME280;6539;49.476;8.484;2022-11-20T03:53:57;100071.59;;;7.09;81.45
12949;BME280;6539;49.476;8.484;2022-11-20T03:56:32;100076.66;;;7.11;80.89
12949;BME280;6539;49.476;8.484;2022-11-20T03:58:58;100069.25;;;7.15;81.60
12949;BME280;6539;49.476;8.484;2022-11-20T04:01:31;100066.91;;;7.06;80.62
12949;BME280;6539;49.476;8.484;2022-11-20T04:03:57;100059.09;;;7.01;80.74
12949;BME280;6539;49.476;8.484;2022-11-20T04:06:33;100065.34;;;6.94;80.43
12949;BME280;6539;49.476;8.484;2022-11-20T04:09:02;100056.78;;;6.85;81.37
12949;BME280;6539;49.476;8.484;2022-11-20T04:11:37;100064.19;;;6.92;82.32
12949;BME280;6539;49.476;8.484;2022-11-20T04:14:14;100067.69;;;6.96;83.03
12949;BME280;6539;49.476;8.484;2022-11-20T04:16:43;100078.22;;;7.01;83.54
12949;BME280;6539;49.476;8.484;2022-11-20T04:19:15;100073.16;;;7.10;83.69
12949;BME280;6539;49.476;8.484;2022-11-20T04:21:43;100067.69;;;7.17;83.42
12949;BME280;6539;49.476;8.484;2022-11-20T04:24:09;100068.06;;;7.23;83.19
12949;BME280;6539;49.476;8.484;2022-11-20T04:26:39;100063.81;;;7.29;82.57
12949;BME280;6539;49.476;8.484;2022-11-20T04:29:11;100072.75;;;7.36;82.51
12949;BME280;6539;49.476;8.484;2022-11-20T04:31:39;100061.84;;;7.29;82.03
12949;BME280;6539;49.476;8.484;2022-11-20T04:34:07;100062.22;;;7.31;81.49
12949;BME280;6539;49.476;8.484;2022-11-20T04:36:36;100059.09;;;7.36;81.30
12949;BME280;6539;49.476;8.484;2022-11-20T04:39:11;100056.38;;;7.36;81.25
12949;BME280;6539;49.476;8.484;2022-11-20T04:41:39;100066.13;;;7.34;79.85
12949;BME280;6539;49.476;8.484;2022-11-20T04:44:09;100062.25;;;7.35;80.29
12949;BME280;6539;49.476;8.484;2022-11-20T04:46:42;100054.06;;;7.24;80.26
12949;BME280;6539;49.476;8.484;2022-11-20T04:49:13;100056.00;;;7.27;80.49
12949;BME280;6539;49.476;8.484;2022-11-20T04:51:39;100055.22;;;7.23;80.22
12949;BME280;6539;49.476;8.484;2022-11-20T04:54:05;100054.03;;;7.21;80.49
12949;BME280;6539;49.476;8.484;2022-11-20T04:56:33;100061.44;;;7.10;80.36
12949;BME280;6539;49.476;8.484;2022-11-20T04:59:02;100056.00;;;6.92;81.54
12949;BME280;6539;49.476;8.484;2022-11-20T05:01:27;100055.63;;;7.04;82.04
12949;BME280;6539;49.476;8.484;2022-11-20T05:03:53;100056.00;;;7.03;82.29
12949;BME280;6539;49.476;8.484;2022-11-20T05:06:23;100052.88;;;7.08;82.54
12949;BME280;6539;49.476;8.484;2022-11-20T05:08:48;100045.84;;;7.03;81.91
12949;BME280;6539;49.476;8.484;2022-11-20T05:11:19;100043.53;;;7.05;82.36
12949;BME280;6539;49.476;8.484;2022-11-20T05:13:47;100033.38;;;7.06;82.00
12949;BME280;6539;49.476;8.484;2022-11-20T05:16:22;100030.66;;;7.09;82.20
12949;BME280;6539;49.476;8.484;2022-11-20T05:18:49;100040.78;;;7.12;82.58
12949;BME280;6539;49.476;8.484;2022-11-20T05:21:18;100030.25;;;7.14;82.59
12949;BME280;6539;49.476;8.484;2022-11-20T05:23:45;100028.72;;;7.20;82.98
12949;BME280;6539;49.476;8.484;2022-11-20T05:26:20;100041.56;;;7.27;82.44
12949;BME280;6539;49.476;8.484;2022-11-20T05:28:50;100047.41;;;7.32;82.24
12949;BME280;6539;49.476;8.484;2022-11-20T05:31:23;100037.66;;;7.31;82.06
12949;BME280;6539;49.476;8.484;2022-11-20T05:33:51;100036.09;;;7.34;81.64
12949;BME280;6539;49.476;8.484;2022-11-20T05:36:17;100046.25;;;7.26;81.10
12949;BME280;6539;49.476;8.484;2022-11-20T05:38:46;100038.47;;;7.18;81.90
12949;BME280;6539;49.476;8.484;2022-11-20T05:41:17;100040.00;;;7.19;82.60
12949;BME280;6539;49.476;8.484;2022-11-20T05:43:45;100040.78;;;7.23;83.04
12949;BME280;6539;49.476;8.484;2022-11-20T05:46:14;100034.16;;;7.27;82.90
12949;BME280;6539;49.476;8.484;2022-11-20T05:48:44;100028.69;;;7.34;82.28
12949;BME280;6539;49.476;8.484;2022-11-20T05:51:15;100035.31;;;7.37;81.68
12949;BME280;6539;49.476;8.484;2022-11-20T05:53:43;100025.97;;;7.34;81.87
12949;BME280;6539;49.476;8.484;2022-11-20T05:56:20;100024.00;;;7.28;82.08
12949;BME280;6539;49.476;8.484;2022-11-20T05:58:48;100030.25;;;7.28;82.82
12949;BME280;6539;49.476;8.484;2022-11-20T06:01:22;100022.06;;;7.28;82.93
12949;BME280;6539;49.476;8.484;2022-11-20T06:03:54;100022.44;;;7.27;82.87
12949;BME280;6539;49.476;8.484;2022-11-20T06:06:20;100025.19;;;7.27;83.31
12949;BME280;6539;49.476;8.484;2022-11-20T06:08:49;100016.59;;;7.32;83.17
12949;BME280;6539;49.476;8.484;2022-11-20T06:11:20;100013.09;;;7.35;83.17
12949;BME280;6539;49.476;8.484;2022-11-20T06:13:46;100009.56;;;7.41;82.87
12949;BME280;6539;49.476;8.484;2022-11-20T06:16:16;100025.16;;;7.48;83.09
12949;BME280;6539;49.476;8.484;2022-11-20T06:18:47;100021.25;;;7.52;82.80
12949;BME280;6539;49.476;8.484;2022-11-20T06:21:23;100024.34;;;7.58;82.55
12949;BME280;6539;49.476;8.484;2022-11-20T06:23:52;100027.06;;;7.61;82.35
12949;BME280;6539;49.476;8.484;2022-11-20T06:26:26;100018.88;;;7.61;82.12
12949;BME280;6539;49.476;8.484;2022-11-20T06:28:57;100014.59;;;7.60;81.58
12949;BME280;6539;49.476;8.484;2022-11-20T06:31:25;100021.59;;;7.61;81.74
12949;BME280;6539;49.476;8.484;2022-11-20T06:33:52;100019.66;;;7.62;81.54
12949;BME280;6539;49.476;8.484;2022-11-20T06:36:23;100019.69;;;7.58;81.38
12949;BME280;6539;49.476;8.484;2022-11-20T06:38:54;100025.53;;;7.60;81.61
12949;BME280;6539;49.476;8.484;2022-11-20T06:41:23;100032.53;;;7.65;81.88
12949;BME280;6539;49.476;8.484;2022-11-20T06:43:52;100028.63;;;7.69;81.80
12949;BME280;6539;49.476;8.484;2022-11-20T06:46:19;100025.09;;;7.72;81.64
12949;BME280;6539;49.476;8.484;2022-11-20T06:48:49;100026.28;;;7.68;81.58
12949;BME280;6539;49.476;8.484;2022-11-20T06:51:19;100028.63;;;7.69;82.05
12949;BME280;6539;49.476;8.484;2022-11-20T06:53:44;100037.97;;;7.72;82.08
12949;BME280;6539;49.476;8.484;2022-11-20T06:56:12;100032.88;;;7.78;82.10
12949;BME280;6539;49.476;8.484;2022-11-20T06:58:39;100039.16;;;7.78;82.24
12949;BME280;6539;49.476;8.484;2022-11-20T07:01:12;100028.97;;;7.79;82.09
12949;BME280;6539;49.476;8.484;2022-11-20T07:03:41;100034.84;;;7.74;82.15
12949;BME280;6539;49.476;8.484;2022-11-20T07:06:08;100032.88;;;7.78;82.16
12949;BME280;6539;49.476;8.484;2022-11-20T07:08:34;100031.75;;;7.72;82.49
12949;BME280;6539;49.476;8.484;2022-11-20T07:11:03;100045.38;;;7.75;82.16
12949;BME280;6539;49.476;8.484;2022-11-20T07:13:32;100037.56;;;7.77;82.19
12949;BME280;6539;49.476;8.484;2022-11-20T07:16:04;100035.59;;;7.81;82.91
12949;BME280;6539;49.476;8.484;2022-11-20T07:18:33;100039.88;;;7.86;82.73
12949;BME280;6539;49.476;8.484;2022-11-20T07:21:04;100040.28;;;7.88;82.82
12949;BME280;6539;49.476;8.484;2022-11-20T07:23:33;100040.28;;;7.81;82.49
12949;BME280;6539;49.476;8.484;2022-11-20T07:26:10;100046.16;;;7.83;83.25
12949;BME280;6539;49.476;8.484;2022-11-20T07:28:44;100046.94;;;7.80;83.48
12949;BME280;6539;49.476;8.484;2022-11-20T07:31:12;100039.91;;;7.79;84.21
12949;BME280;6539;49.476;8.484;2022-11-20T07:33:40;100045.75;;;7.81;83.65
12949;BME280;6539;49.476;8.484;2022-11-20T07:36:08;100041.50;;;7.76;83.42
12949;BME280;6539;49.476;8.484;2022-11-20T07:38:36;100039.94;;;7.72;83.66
12949;BME280;6539;49.476;8.484;2022-11-20T07:41:04;100043.00;;;7.81;83.86
12949;BME280;6539;49.476;8.484;2022-11-20T07:43:32;100039.56;;;7.69;84.28
12949;BME280;6539;49.476;8.484;2022-11-20T07:46:01;100048.91;;;7.76;84.27
12949;BME280;6539;49.476;8.484;2022-11-20T07:48:29;100053.94;;;7.81;84.44
12949;BME280;6539;49.476;8.484;2022-11-20T07:50:56;100043.41;;;7.86;84.34
12949;BME280;6539;49.476;8.484;2022-11-20T07:53:23;100039.47;;;7.94;84.27
12949;BME280;6539;49.476;8.484;2022-11-20T07:55:51;100054.63;;;8.13;90.10
12949;BME280;6539;49.476;8.484;2022-11-20T07:58:21;100047.06;;;8.49;94.44
12949;BME280;6539;49.476;8.484;2022-11-20T08:00:49;100053.34;;;8.42;89.00
12949;BME280;6539;49.476;8.484;2022-11-20T08:03:17;100042.81;;;8.40;86.39
12949;BME280;6539;49.476;8.484;2022-11-20T08:05:43;100052.16;;;8.47;84.59
12949;BME280;6539;49.476;8.484;2022-11-20T08:08:09;100043.56;;;8.44;84.01
12949;BME280;6539;49.476;8.484;2022-11-20T08:10:34;100054.53;;;8.37;83.63
12949;BME280;6539;49.476;8.484;2022-11-20T08:13:05;100056.13;;;8.35;82.70
12949;BME280;6539;49.476;8.484;2022-11-20T08:15:50;100055.72;;;8.33;83.33
12949;BME280;6539;49.476;8.484;2022-11-20T08:18:17;100060.03;;;8.34;82.63
12949;BME280;6539;49.476;8.484;2022-11-20T08:20:43;100061.19;;;8.33;82.81
12949;BME280;6539;49.476;8.484;2022-11-20T08:23:12;100068.25;;;8.30;82.67
12949;BME280;6539;49.476;8.484;2022-11-20T08:25:40;100074.88;;;8.33;82.93
12949;BME280;6539;49.476;8.484;2022-11-20T08:28:08;100079.19;;;8.34;83.05
12949;BME280;6539;49.476;8.484;2022-11-20T08:30:37;100081.50;;;8.35;82.54
12949;BME280;6539;49.476;8.484;2022-11-20T08:33:06;100080.34;;;8.33;83.17
12949;BME280;6539;49.476;8.484;2022-11-20T08:35:39;100086.97;;;8.35;83.10
12949;BME280;6539;49.476;8.484;2022-11-20T08:38:06;100087.00;;;8.32;83.73
12949;BME280;6539;49.476;8.484;2022-11-20T08:40:33;100084.28;;;8.32;83.62
12949;BME280;6539;49.476;8.484;2022-11-20T08:42:59;100088.16;;;8.34;83.82
12949;BME280;6539;49.476;8.484;2022-11-20T08:45:27;100095.16;;;8.39;83.86
12949;BME280;6539;49.476;8.484;2022-11-20T08:48:02;100091.63;;;8.42;83.59
12949;BME280;6539;49.476;8.484;2022-11-20T08:50:28;100092.00;;;8.48;83.79
12949;BME280;6539;49.476;8.484;2022-11-20T08:53:03;100099.00;;;8.52;83.54
12949;BME280;6539;49.476;8.484;2022-11-20T08:55:29;100103.69;;;8.55;83.54
12949;BME280;6539;49.476;8.484;2022-11-20T08:57:55;100104.44;;;8.59;83.63
12949;BME280;6539;49.476;8.484;2022-11-20T09:00:21;100112.25;;;8.64;83.52
12949;BME280;6539;49.476;8.484;2022-11-20T09:02:47;100106.00;;;8.64;83.18
12949;BME280;6539;49.476;8.484;2022-11-20T09:05:12;100101.31;;;8.61;83.79
12949;BME280;6539;49.476;8.484;2022-11-20T09:07:38;100110.31;;;8.61;84.13
12949;BME280;6539;49.476;8.484;2022-11-20T09:10:07;100112.63;;;8.66;83.68
12949;BME280;6539;49.476;8.484;2022-11-20T09:12:38;100105.56;;;8.72;83.17
12949;BME280;6539;49.476;8.484;2022-11-20T09:15:07;100100.47;;;8.74;82.78
12949;BME280;6539;49.476;8.484;2022-11-20T09:17:35;100107.06;;;8.80;82.70
12949;BME280;6539;49.476;8.484;2022-11-20T09:20:00;100109.81;;;8.80;82.81
12949;BME280;6539;49.476;8.484;2022-11-20T09:22:26;100101.59;;;8.84;82.20
12949;BME280;6539;49.476;8.484;2022-11-20T09:24:54;100099.59;;;8.84;82.02
12949;BME280;6539;49.476;8.484;2022-11-20T09:27:20;100114.88;;;8.85;81.90
12949;BME280;6539;49.476;8.484;2022-11-20T09:29:46;100114.06;;;8.88;81.57
12949;BME280;6539;49.476;8.484;2022-11-20T09:32:12;100116.03;;;8.88;81.62
12949;BME280;6539;49.476;8.484;2022-11-20T09:34:40;100117.22;;;8.83;81.05
12949;BME280;6539;49.476;8.484;2022-11-20T09:37:06;100122.31;;;8.78;80.55
12949;BME280;6539;49.476;8.484;2022-11-20T09:39:31;100122.31;;;8.78;80.32
12949;BME280;6539;49.476;8.484;2022-11-20T09:48:33;100120.81;;;8.70;80.05
12949;BME280;6539;49.476;8.484;2022-11-20T09:54:16;100114.53;;;8.76;79.79
12949;BME280;6539;49.476;8.484;2022-11-20T09:56:53;100117.25;;;8.76;79.80
12949;BME280;6539;49.476;8.484;2022-11-20T09:59:42;100121.56;;;8.77;79.99
12949;BME280;6539;49.476;8.484;2022-11-20T10:07:52;100120.75;;;8.80;80.04
12949;BME280;6539;49.476;8.484;2022-11-20T10:22:35;100123.88;;;8.86;80.17
12949;BME280;6539;49.476;8.484;2022-11-20T10:25:20;100116.78;;;8.92;80.17
12949;BME280;6539;49.476;8.484;2022-11-20T10:30:19;100114.38;;;8.97;79.64
12949;BME280;6539;49.476;8.484;2022-11-20T10:32:53;100117.13;;;8.97;79.84
12949;BME280;6539;49.476;8.484;2022-11-20T10:35:40;100099.16;;;8.96;79.78
12949;BME280;6539;49.476;8.484;2022-11-20T10:38:31;100098.75;;;8.98;79.64
12949;BME280;6539;49.476;8.484;2022-11-20T10:41:02;100108.91;;;8.97;79.77
12949;BME280;6539;49.476;8.484;2022-11-20T10:43:49;100097.97;;;8.97;79.37
12949;BME280;6539;49.476;8.484;2022-11-20T10:46:22;100094.09;;;8.95;79.54
12949;BME280;6539;49.476;8.484;2022-11-20T10:48:51;100105.47;;;8.90;79.79
12949;BME280;6539;49.476;8.484;2022-11-20T11:00:13;100091.78;;;8.86;81.66
12949;BME280;6539;49.476;8.484;2022-11-20T11:02:49;100079.31;;;8.82;82.29
12949;BME280;6539;49.476;8.484;2022-11-20T11:05:39;100086.00;;;8.77;82.26
12949;BME280;6539;49.476;8.484;2022-11-20T11:08:14;100083.63;;;8.79;82.76
12949;BME280;6539;49.476;8.484;2022-11-20T11:10:55;100078.91;;;8.83;83.57
12949;BME280;6539;49.476;8.484;2022-11-20T11:13:33;100073.81;;;8.85;84.03
12949;BME280;6539;49.476;8.484;2022-11-20T11:16:03;100069.84;;;8.93;83.81
12949;BME280;6539;49.476;8.484;2022-11-20T11:18:34;100070.97;;;8.99;83.49
12949;BME280;6539;49.476;8.484;2022-11-20T11:21:04;100061.09;;;9.12;83.21
12949;BME280;6539;49.476;8.484;2022-11-20T11:23:42;100057.25;;;9.51;83.08
12949;BME280;6539;49.476;8.484;2022-11-20T11:26:22;100052.47;;;9.92;82.25
12949;BME280;6539;49.476;8.484;2022-11-20T11:29:03;100053.91;;;10.37;80.12
12949;BME280;6539;49.476;8.484;2022-11-20T11:31:34;100052.19;;;10.77;79.35
12949;BME280;6539;49.476;8.484;2022-11-20T11:34:11;100036.28;;;10.92;76.24
12949;BME280;6539;49.476;8.484;2022-11-20T11:36:39;100043.44;;;10.86;76.43
12949;BME280;6539;49.476;8.484;2022-11-20T11:39:14;100033.50;;;10.95;76.42
12949;BME280;6539;49.476;8.484;2022-11-20T11:41:41;100040.34;;;11.07;76.89
12949;BME280;6539;49.476;8.484;2022-11-20T11:44:22;100039.44;;;10.90;78.03
12949;BME280;6539;49.476;8.484;2022-11-20T11:47:46;100028.53;;;10.87;78.25
12949;BME280;6539;49.476;8.484;2022-11-20T11:50:28;100034.84;;;10.84;78.34
12949;BME280;6539;49.476;8.484;2022-11-20T11:53:13;100030.97;;;10.81;78.09
12949;BME280;6539;49.476;8.484;2022-11-20T11:56:08;100021.69;;;10.71;78.20
12949;BME280;6539;49.476;8.484;2022-11-20T11:58:47;100033.88;;;10.70;77.89
12949;BME280;6539;49.476;8.484;2022-11-20T12:07:00;100022.47;;;10.72;78.47
12949;BME280;6539;49.476;8.484;2022-11-20T12:09:43;100020.84;;;10.74;78.27
12949;BME280;6539;49.476;8.484;2022-11-20T12:12:24;100012.16;;;10.80;78.81
12949;BME280;6539;49.476;8.484;2022-11-20T12:14:59;100005.00;;;10.86;78.33
12949;BME280;6539;49.476;8.484;2022-11-20T12:17:33;100008.34;;;10.97;78.44
12949;BME280;6539;49.476;8.484;2022-11-20T12:19:59;100001.53;;;11.05;77.52
12949;BME280;6539;49.476;8.484;2022-11-20T12:25:35;100005.13;;;11.25;76.32
12949;BME280;6539;49.476;8.484;2022-11-20T12:28:56;100000.34;;;11.29;77.10
12949;BME280;6539;49.476;8.484;2022-11-20T12:48:14;99991.16;;;11.16;73.43
12949;BME280;6539;49.476;8.484;2022-11-20T12:54:09;99989.72;;;11.08;72.20
12949;BME280;6539;49.476;8.484;2022-11-20T12:56:58;99997.47;;;10.90;72.13
12949;BME280;6539;49.476;8.484;2022-11-20T13:08:39;99984.00;;;10.76;72.71
12949;BME280;6539;49.476;8.484;2022-11-20T13:17:13;99967.44;;;10.79;72.07
12949;BME280;6539;49.476;8.484;2022-11-20T13:19:40;99972.50;;;10.81;72.43
12949;BME280;6539;49.476;8.484;2022-11-20T13:22:09;99969.75;;;10.81;72.51
12949;BME280;6539;49.476;8.484;2022-11-20T13:24:35;99960.63;;;10.87;72.82
12949;BME280;6539;49.476;8.484;2022-11-20T13:29:26;99957.66;;;11.01;72.72
12949;BME280;6539;49.476;8.484;2022-11-20T13:32:22;99957.59;;;11.05;72.20
12949;BME280;6539;49.476;8.484;2022-11-20T13:35:03;99941.19;;;11.01;70.35
12949;BME280;6539;49.476;8.484;2022-11-20T13:37:40;99945.06;;;11.04;70.49
12949;BME280;6539;49.476;8.484;2022-11-20T13:43:04;99943.28;;;11.17;69.88
12949;BME280;6539;49.476;8.484;2022-11-20T13:45:35;99934.53;;;11.22;69.26
12949;BME280;6539;49.476;8.484;2022-11-20T13:48:24;99939.22;;;11.21;69.40
12949;BME280;6539;49.476;8.484;2022-11-20T13:56:59;99931.78;;;11.22;67.83
12949;BME280;6539;49.476;8.484;2022-11-20T13:59:57;99925.44;;;11.25;65.80
12949;BME280;6539;49.476;8.484;2022-11-20T14:02:27;99918.41;;;11.24;65.88
12949;BME280;6539;49.476;8.484;2022-11-20T14:04:59;99920.38;;;11.23;64.96
12949;BME280;6539;49.476;8.484;2022-11-20T14:07:41;99923.50;;;11.25;65.42
12949;BME280;6539;49.476;8.484;2022-11-20T14:10:27;99918.34;;;11.27;64.65
12949;BME280;6539;49.476;8.484;2022-11-20T14:12:56;99922.28;;;11.26;63.85
12949;BME280;6539;49.476;8.484;2022-11-20T14:15:31;99922.22;;;11.30;61.81
12949;BME280;6539;49.476;8.484;2022-11-20T14:17:58;99924.25;;;11.26;60.06
12949;BME280;6539;49.476;8.484;2022-11-20T14:20:29;99923.03;;;11.07;58.91
12949;BME280;6539;49.476;8.484;2022-11-20T14:22:56;99905.84;;;11.03;58.97
12949;BME280;6539;49.476;8.484;2022-11-20T14:25:26;99903.22;;;10.96;58.29
12949;BME280;6539;49.476;8.484;2022-11-20T14:28:02;99907.63;;;10.90;58.75
12949;BME280;6539;49.476;8.484;2022-11-20T14:30:47;99910.03;;;10.88;59.04
12949;BME280;6539;49.476;8.484;2022-11-20T14:33:17;99910.75;;;10.69;58.94
12949;BME280;6539;49.476;8.484;2022-11-20T14:35:49;99911.94;;;10.68;59.70
12949;BME280;6539;49.476;8.484;2022-11-20T14:38:26;99907.22;;;10.68;59.98
12949;BME280;6539;49.476;8.484;2022-11-20T14:40:52;99913.34;;;10.53;58.78
12949;BME280;6539;49.476;8.484;2022-11-20T14:43:26;99910.94;;;10.58;58.98
12949;BME280;6539;49.476;8.484;2022-11-20T14:46:03;99899.59;;;10.56;59.83
12949;BME280;6539;49.476;8.484;2022-11-20T14:48:44;99901.91;;;10.58;59.15
12949;BME280;6539;49.476;8.484;2022-11-20T14:51:32;99903.09;;;10.57;59.42
12949;BME280;6539;49.476;8.484;2022-11-20T14:54:28;99903.53;;;10.55;59.02
12949;BME280;6539;49.476;8.484;2022-11-20T14:57:03;99895.00;;;10.50;59.94
12949;BME280;6539;49.476;8.484;2022-11-20T14:59:34;99895.75;;;10.50;60.32
12949;BME280;6539;49.476;8.484;2022-11-20T15:02:11;99896.53;;;10.51;60.15
12949;BME280;6539;49.476;8.484;2022-11-20T15:04:57;99897.75;;;10.50;60.74
12949;BME280;6539;49.476;8.484;2022-11-20T15:07:44;99902.44;;;10.49;60.96
12949;BME280;6539;49.476;8.484;2022-11-20T15:10:25;99886.09;;;10.42;61.93
12949;BME280;6539;49.476;8.484;2022-11-20T15:12:55;99890.34;;;10.47;61.04
12949;BME280;6539;49.476;8.484;2022-11-20T15:15:36;99889.19;;;10.44;62.00